CST,Max TemperatureF,Mean TemperatureF,Min TemperatureF,Max Dew PointF,MeanDew PointF,Min DewpointF,Max Humidity, Mean Humidity, Min Humidity, Max Sea Level PressureIn, Mean Sea Level PressureIn, Min Sea Level PressureIn, Max VisibilityMiles, Mean VisibilityMiles, Min VisibilityMiles, Max Wind SpeedMPH, Mean Wind SpeedMPH, Max Gust SpeedMPH,PrecipitationIn, CloudCover, Events, WindDirDegrees
2013-12-1,51,36,20,30,25,17,91,69,46,30.17,30.04,29.82,10,10,9,9,4,13,0.00,1,,142
2013-12-2,63,48,32,30,28,26,75,51,27,29.80,29.62,29.50,10,10,10,15,6,17,0.00,2,,229
2013-12-3,39,32,25,31,27,21,92,78,64,29.77,29.62,29.49,10,9,4,22,11,28,0.00,5,,354
2013-12-4,25,18,11,21,10,-1,92,72,51,30.21,29.84,29.68,10,9,3,29,20,35,T,7,Snow,333
2013-12-5,16,11,5,-2,-6,-10,69,55,40,30.42,30.32,30.23,10,10,10,21,15,30,0.00,2,,344
2013-12-6,13,4,-5,-8,-9,-11,78,58,38,30.75,30.63,30.39,10,10,10,18,9,22,0.00,1,,3
2013-12-7,12,3,-6,6,-3,-11,83,65,46,30.77,30.57,30.31,10,7,2,15,8,20,0.08,4,Snow,101
2013-12-8,15,5,-5,11,7,-4,100,90,80,30.32,30.09,29.95,10,4,1,15,7,20,0.05,7,Snow,63
2013-12-9,15,4,-7,6,-2,-11,87,77,66,30.44,30.31,30.19,10,10,10,18,10,25,0.00,0,,248
2013-12-10,28,18,7,23,12,3,80,68,55,30.33,30.22,30.13,10,10,7,20,8,26,T,2,Snow,237
2013-12-11,27,15,2,16,5,-2,84,71,58,30.71,30.56,30.36,10,10,10,25,10,31,0.00,0,,277
2013-12-12,37,22,7,23,15,4,88,70,52,30.48,30.31,30.07,10,10,9,15,5,20,0.00,0,,208
2013-12-13,37,24,11,25,17,7,92,78,64,30.15,29.99,29.87,10,8,5,25,9,29,0.00,2,,25
2013-12-14,34,24,14,21,16,11,92,77,61,30.30,30.21,30.10,10,8,5,22,10,26,T,4,,322
2013-12-15,55,41,26,30,25,21,81,58,35,30.12,30.03,29.95,10,10,10,20,9,23,0.00,3,,261
2013-12-16,57,41,24,28,25,21,81,56,30,30.22,30.06,29.99,10,10,10,16,8,,0.00,0,,319
2013-12-17,47,36,24,27,21,16,88,58,28,30.38,30.25,30.07,10,10,10,18,9,24,0.00,0,,259
2013-12-18,65,49,32,26,23,22,63,43,23,30.03,29.81,29.69,10,10,10,17,9,24,0.00,0,,220
2013-12-19,35,23,10,26,19,7,88,74,59,29.99,29.81,29.70,10,9,4,28,18,32,T,3,Snow,23
2013-12-20,20,15,9,10,7,4,83,73,62,30.09,29.98,29.83,10,9,2,25,10,32,T,7,Snow,346
2013-12-21,27,21,15,15,12,10,80,68,55,29.96,29.85,29.79,10,10,10,22,7,27,0.00,2,,55
2013-12-22,25,18,11,12,9,4,88,71,54,30.44,30.17,29.91,10,10,3,18,12,23,T,4,Snow,347
2013-12-23,12,8,4,7,3,-3,83,75,66,30.68,30.53,30.37,10,8,2,18,9,22,0.01,7,Snow,339
2013-12-24,33,21,8,27,18,4,100,88,75,30.46,30.23,30.03,10,6,3,22,12,31,T,6,Snow,194
2013-12-25,43,31,19,25,20,15,92,64,36,30.38,30.33,30.28,10,10,10,26,12,32,0.00,0,,288
2013-12-26,55,39,23,21,18,16,75,49,22,30.30,30.21,30.15,10,10,10,18,9,23,0.00,0,,267
2013-12-27,57,39,21,24,20,17,84,54,24,30.28,30.20,30.07,10,10,10,18,7,26,0.00,0,,233
2013-12-28,56,35,14,29,18,4,78,50,22,30.23,29.97,29.78,10,10,10,37,14,46,0.00,2,,243
2013-12-29,20,13,5,3,-3,-10,67,46,25,30.50,30.31,30.15,10,10,10,32,16,43,0.00,2,,347
2013-12-30,52,33,13,23,19,12,74,52,30,30.23,30.10,30.00,10,10,10,33,14,45,0.00,2,,255
2013-12-31,54,35,15,22,16,8,80,54,28,30.26,30.10,29.96,10,10,10,18,9,24,0.00,0,,155